createdAt,value
2019-05-13T00:00:13.968Z,0.00
2019-05-13T00:01:14.308Z,0.00
2019-05-13T00:02:13.323Z,0.00
2019-05-13T00:03:13.594Z,0.00
2019-05-13T00:04:13.937Z,0.00
2019-05-13T00:05:14.429Z,0.00
2019-05-13T00:06:13.432Z,0.00
2019-05-13T00:07:13.448Z,0.00
2019-05-13T00:08:13.724Z,0.00
2019-05-13T00:09:13.957Z,0.00
2019-05-13T00:10:14.360Z,0.00
2019-05-13T00:11:13.621Z,0.00
2019-05-13T00:12:13.734Z,0.00
2019-05-13T00:13:11.693Z,0.00
2019-05-13T00:14:13.445Z,0.00
2019-05-13T00:15:13.781Z,0.00
2019-05-13T00:16:13.950Z,0.00
2019-05-13T00:17:11.647Z,0.00
2019-05-13T00:18:14.158Z,0.00
2019-05-13T00:19:11.626Z,0.00
2019-05-13T00:20:13.861Z,0.00
2019-05-13T00:21:13.879Z,0.00
2019-05-13T00:22:13.904Z,0.00
2019-05-13T00:23:12.047Z,0.00
2019-05-13T00:24:13.704Z,0.00
2019-05-13T00:25:14.261Z,0.00
2019-05-13T00:26:13.962Z,0.00
2019-05-13T00:27:11.540Z,0.00
2019-05-13T00:28:11.541Z,0.00
2019-05-13T00:29:11.529Z,0.00
2019-05-13T00:30:11.519Z,0.00
2019-05-13T00:31:13.698Z,0.00
2019-05-13T00:32:13.487Z,0.00
2019-05-13T00:33:13.779Z,0.00
2019-05-13T00:34:14.163Z,0.00
2019-05-13T00:35:11.459Z,0.00
2019-05-13T00:36:11.444Z,0.00
2019-05-13T00:37:11.871Z,0.00
2019-05-13T00:38:11.424Z,0.00
2019-05-13T00:39:11.408Z,0.00
2019-05-13T00:40:14.113Z,0.00
2019-05-13T00:41:11.384Z,0.00
2019-05-13T00:42:11.373Z,0.00
2019-05-13T00:43:11.361Z,0.00
2019-05-13T00:44:11.355Z,0.00
2019-05-13T00:45:11.355Z,0.00
2019-05-13T00:46:11.332Z,0.00
2019-05-13T00:47:13.242Z,0.00
2019-05-13T00:48:11.307Z,0.00
2019-05-13T00:49:13.318Z,0.00
2019-05-13T00:50:11.302Z,0.00
2019-05-13T00:51:11.273Z,0.00
2019-05-13T00:52:11.264Z,0.00
2019-05-13T00:53:13.279Z,0.00
2019-05-13T00:54:13.225Z,0.00
2019-05-13T00:55:11.242Z,0.00
2019-05-13T00:56:13.228Z,0.00
2019-05-13T00:57:13.250Z,0.00
2019-05-13T00:58:13.711Z,0.00
2019-05-13T00:59:11.190Z,0.00
2019-05-13T01:00:11.197Z,0.00
2019-05-13T01:01:11.187Z,0.00
2019-05-13T01:02:11.158Z,0.00
2019-05-13T01:03:11.148Z,0.00
2019-05-13T01:04:11.144Z,0.00
2019-05-13T01:05:11.154Z,0.00
2019-05-13T01:06:13.231Z,0.00
2019-05-13T01:07:22.854Z,0.00
2019-05-13T01:08:14.288Z,0.00
2019-05-13T01:09:11.087Z,0.00
2019-05-13T01:10:13.214Z,0.00
2019-05-13T01:11:13.218Z,0.00
2019-05-13T01:12:13.272Z,0.00
2019-05-13T01:13:13.109Z,0.00
2019-05-13T01:14:11.038Z,0.00
2019-05-13T01:15:13.272Z,0.00
2019-05-13T01:16:11.010Z,0.00
2019-05-13T01:17:11.027Z,0.00
2019-05-13T01:18:10.989Z,0.00
2019-05-13T01:19:11.023Z,0.00
2019-05-13T01:20:10.966Z,0.00
2019-05-13T01:21:13.145Z,0.00
2019-05-13T01:22:13.347Z,0.00
2019-05-13T01:23:10.934Z,0.00
2019-05-13T01:24:10.922Z,0.00
2019-05-13T01:25:10.927Z,0.00
2019-05-13T01:26:10.906Z,0.00
2019-05-13T01:27:10.892Z,0.00
2019-05-13T01:28:10.879Z,0.00
2019-05-13T01:29:13.306Z,0.00
2019-05-13T01:30:13.200Z,0.00
2019-05-13T01:31:13.122Z,0.00
2019-05-13T01:32:10.855Z,0.00
2019-05-13T01:33:10.839Z,0.00
2019-05-13T01:34:10.818Z,0.00
2019-05-13T01:35:10.822Z,0.00
2019-05-13T01:36:13.250Z,0.00
2019-05-13T01:37:13.167Z,0.00
2019-05-13T01:38:10.777Z,0.00
2019-05-13T01:39:10.776Z,0.00
2019-05-13T01:40:10.754Z,0.00
2019-05-13T01:41:10.741Z,0.00
2019-05-13T01:42:10.735Z,0.00
2019-05-13T01:43:10.722Z,0.00
2019-05-13T01:44:10.722Z,0.00
2019-05-13T01:45:10.704Z,0.00
2019-05-13T01:46:10.688Z,0.00
2019-05-13T01:47:10.708Z,0.00
2019-05-13T01:48:10.688Z,0.00
2019-05-13T01:49:10.660Z,0.00
2019-05-13T01:50:10.653Z,0.00
2019-05-13T01:51:10.640Z,0.00
2019-05-13T01:52:10.635Z,0.00
2019-05-13T01:53:10.644Z,0.00
2019-05-13T01:54:10.604Z,0.00
2019-05-13T01:55:10.591Z,0.00
2019-05-13T01:56:10.589Z,0.00
2019-05-13T01:57:10.579Z,0.00
2019-05-13T01:58:10.562Z,0.00
2019-05-13T01:59:10.565Z,0.00
2019-05-13T02:00:10.538Z,0.00
2019-05-13T02:01:10.527Z,0.00
2019-05-13T02:02:10.523Z,0.00
2019-05-13T02:03:10.506Z,0.00
2019-05-13T02:04:10.507Z,0.00
2019-05-13T02:05:10.498Z,0.00
2019-05-13T02:06:10.473Z,0.00
2019-05-13T02:07:10.464Z,0.00
2019-05-13T02:08:10.454Z,0.00
2019-05-13T02:09:10.443Z,0.00
2019-05-13T02:10:10.446Z,0.00
2019-05-13T02:11:10.434Z,0.00
2019-05-13T02:12:10.412Z,0.00
2019-05-13T02:13:10.401Z,0.00
2019-05-13T02:14:10.400Z,0.00
2019-05-13T02:15:10.416Z,0.00
2019-05-13T02:16:10.370Z,0.00
2019-05-13T02:17:10.360Z,0.00
2019-05-13T02:18:10.351Z,0.00
2019-05-13T02:19:10.340Z,0.00
2019-05-13T02:20:10.335Z,0.00
2019-05-13T02:21:10.336Z,0.00
2019-05-13T02:22:10.337Z,0.00
2019-05-13T02:23:10.295Z,0.00
2019-05-13T02:24:10.288Z,0.00
2019-05-13T02:25:10.272Z,0.00
2019-05-13T02:26:10.270Z,0.00
2019-05-13T02:27:10.253Z,0.00
2019-05-13T02:28:10.766Z,0.00
2019-05-13T02:29:10.236Z,0.00
2019-05-13T02:30:10.228Z,0.00
2019-05-13T02:31:13.798Z,0.00
2019-05-13T02:32:13.602Z,0.00
2019-05-13T02:33:12.917Z,0.00
2019-05-13T02:34:13.376Z,0.00
2019-05-13T02:35:13.517Z,0.00
2019-05-13T02:36:13.223Z,0.00
2019-05-13T02:37:12.886Z,0.00
2019-05-13T02:38:19.857Z,0.00
2019-05-13T02:39:12.930Z,0.00
2019-05-13T02:40:13.150Z,0.00
2019-05-13T02:41:13.149Z,0.00
2019-05-13T02:42:12.969Z,0.00
2019-05-13T02:43:13.281Z,0.00
2019-05-13T02:44:12.234Z,0.00
2019-05-13T02:45:12.392Z,0.00
2019-05-13T02:46:12.857Z,0.00
2019-05-13T02:47:12.345Z,0.00
2019-05-13T02:48:12.628Z,0.00
2019-05-13T02:49:12.152Z,0.00
2019-05-13T02:50:12.715Z,0.00
2019-05-13T02:51:12.384Z,0.00
2019-05-13T02:52:12.987Z,0.00
2019-05-13T02:53:13.325Z,0.00
2019-05-13T02:54:12.482Z,0.00
2019-05-13T02:55:12.340Z,0.00
2019-05-13T02:56:11.648Z,0.00
2019-05-13T02:57:12.434Z,4.00
2019-05-13T02:58:12.427Z,4.00
2019-05-13T02:59:13.216Z,4.00
2019-05-13T03:00:12.899Z,0.00
2019-05-13T03:01:12.546Z,4.00
2019-05-13T03:02:12.379Z,4.00
2019-05-13T03:03:12.897Z,4.00
2019-05-13T03:04:12.846Z,4.00
2019-05-13T03:05:13.225Z,8.00
2019-05-13T03:06:13.051Z,4.00
2019-05-13T03:07:12.025Z,4.00
2019-05-13T03:08:12.805Z,8.00
2019-05-13T03:09:12.690Z,12.00
2019-05-13T03:10:13.223Z,8.00
2019-05-13T03:11:12.640Z,12.00
2019-05-13T03:12:12.932Z,12.00
2019-05-13T03:13:12.548Z,16.00
2019-05-13T03:14:12.616Z,20.00
2019-05-13T03:15:13.006Z,24.00
2019-05-13T03:16:12.826Z,24.00
2019-05-13T03:17:12.857Z,28.00
2019-05-13T03:18:13.046Z,32.00
2019-05-13T03:19:13.274Z,36.00
2019-05-13T03:20:15.853Z,44.00
2019-05-13T03:21:12.741Z,48.00
2019-05-13T03:22:13.206Z,56.00
2019-05-13T03:23:13.053Z,64.00
2019-05-13T03:24:13.107Z,72.00
2019-05-13T03:25:12.870Z,84.00
2019-05-13T03:26:12.680Z,92.00
2019-05-13T03:27:12.503Z,104.00
2019-05-13T03:28:13.189Z,120.00
2019-05-13T03:29:12.298Z,132.00
2019-05-13T03:30:15.410Z,152.00
2019-05-13T03:31:15.870Z,168.00
2019-05-13T03:32:16.132Z,184.00
2019-05-13T03:33:17.645Z,204.00
2019-05-13T03:34:15.863Z,228.00
2019-05-13T03:35:15.689Z,248.00
2019-05-13T03:36:16.519Z,272.00
2019-05-13T03:37:15.502Z,300.00
2019-05-13T03:38:12.753Z,324.00
2019-05-13T03:39:12.471Z,356.00
2019-05-13T03:40:13.336Z,388.00
2019-05-13T03:41:12.203Z,420.00
2019-05-13T03:42:12.234Z,456.00
2019-05-13T03:43:12.564Z,492.00
2019-05-13T03:44:13.106Z,528.00
2019-05-13T03:45:09.413Z,568.00
2019-05-13T03:46:12.063Z,608.00
2019-05-13T03:47:12.412Z,652.00
2019-05-13T03:48:12.080Z,696.00
2019-05-13T03:49:13.304Z,740.00
2019-05-13T03:50:12.314Z,784.00
2019-05-13T03:51:12.922Z,832.00
2019-05-13T03:52:09.341Z,880.00
2019-05-13T03:53:12.119Z,932.00
2019-05-13T03:54:09.326Z,984.00
2019-05-13T03:55:09.322Z,1036.00
2019-05-13T03:56:12.507Z,1092.00
2019-05-13T03:57:12.395Z,1148.00
2019-05-13T03:58:12.835Z,1204.00
2019-05-13T03:59:09.273Z,1264.00
2019-05-13T04:00:12.886Z,1320.00
2019-05-13T04:01:09.252Z,1376.00
2019-05-13T04:02:09.253Z,1432.00
2019-05-13T04:03:09.226Z,1484.00
2019-05-13T04:04:12.350Z,1540.00
2019-05-13T04:05:12.987Z,1596.00
2019-05-13T04:06:13.115Z,1656.00
2019-05-13T04:07:09.188Z,1716.00
2019-05-13T04:08:09.189Z,1776.00
2019-05-13T04:09:22.200Z,1840.00
2019-05-13T04:10:12.932Z,1896.00
2019-05-13T04:11:12.325Z,1960.00
2019-05-13T04:12:09.153Z,2020.00
2019-05-13T04:13:12.237Z,2088.00
2019-05-13T04:14:12.140Z,2148.00
2019-05-13T04:15:12.387Z,2212.00
2019-05-13T04:16:12.360Z,2272.00
2019-05-13T04:17:12.334Z,2340.00
2019-05-13T04:18:12.296Z,2412.00
2019-05-13T04:19:12.114Z,2496.00
2019-05-13T04:20:12.372Z,2580.00
2019-05-13T04:21:09.032Z,2668.00
2019-05-13T04:22:09.018Z,2756.00
2019-05-13T04:23:09.003Z,2824.00
2019-05-13T04:24:12.023Z,2884.00
2019-05-13T04:25:08.996Z,2936.00
2019-05-13T04:26:08.996Z,2976.00
2019-05-13T04:27:08.983Z,3016.00
2019-05-13T04:28:08.955Z,3068.00
2019-05-13T04:29:08.973Z,3128.00
2019-05-13T04:30:08.933Z,3196.00
2019-05-13T04:31:08.920Z,3256.00
2019-05-13T04:32:08.908Z,3324.00
2019-05-13T04:33:08.896Z,3384.00
2019-05-13T04:34:12.110Z,3444.00
2019-05-13T04:35:12.219Z,3504.00
2019-05-13T04:36:08.918Z,3572.00
2019-05-13T04:37:08.855Z,3624.00
2019-05-13T04:38:10.182Z,3668.00
2019-05-13T04:39:12.691Z,3712.00
2019-05-13T04:40:08.822Z,3756.00
2019-05-13T04:41:11.114Z,3820.00
2019-05-13T04:42:08.806Z,3888.00
2019-05-13T04:43:08.796Z,3956.00
2019-05-13T04:44:08.795Z,4032.00
2019-05-13T04:45:08.783Z,4144.00
2019-05-13T04:46:08.762Z,4272.00
2019-05-13T04:47:12.464Z,4476.00
2019-05-13T04:48:08.738Z,4760.00
2019-05-13T04:49:08.721Z,5104.00
2019-05-13T04:50:08.751Z,5304.00
2019-05-13T04:51:08.709Z,5280.00
2019-05-13T04:52:08.695Z,5196.00
2019-05-13T04:53:08.684Z,5120.00
2019-05-13T04:54:08.672Z,4996.00
2019-05-13T04:55:08.672Z,4888.00
2019-05-13T04:56:08.669Z,4876.00
2019-05-13T04:57:08.641Z,4724.00
2019-05-13T04:58:08.633Z,4792.00
2019-05-13T04:59:08.615Z,4908.00
2019-05-13T05:00:08.620Z,5168.00
2019-05-13T05:01:10.445Z,5256.00
2019-05-13T05:02:12.986Z,5484.00
2019-05-13T05:03:08.575Z,5724.00
2019-05-13T05:04:13.900Z,6080.00
2019-05-13T05:05:12.752Z,6480.00
2019-05-13T05:06:08.540Z,6728.00
2019-05-13T05:07:08.556Z,6888.00
2019-05-13T05:08:08.524Z,7044.00
2019-05-13T05:09:08.510Z,7164.00
2019-05-13T05:10:18.861Z,7212.00
2019-05-13T05:11:13.029Z,7188.00
2019-05-13T05:12:08.486Z,7140.00
2019-05-13T05:13:08.482Z,7076.00
2019-05-13T05:14:08.451Z,6808.00
2019-05-13T05:15:08.450Z,7204.00
2019-05-13T05:16:08.436Z,5852.00
2019-05-13T05:17:08.438Z,6324.00
2019-05-13T05:18:08.414Z,7336.00
2019-05-13T05:19:08.398Z,7612.00
2019-05-13T05:20:08.388Z,7848.00
2019-05-13T05:21:08.396Z,8172.00
2019-05-13T05:22:08.407Z,8352.00
2019-05-13T05:23:08.389Z,8668.00
2019-05-13T05:24:08.349Z,8936.00
2019-05-13T05:25:08.341Z,9244.00
2019-05-13T05:26:08.322Z,9580.00
2019-05-13T05:27:08.309Z,9988.00
2019-05-13T05:28:08.297Z,10496.00
2019-05-13T05:29:08.326Z,9848.00
2019-05-13T05:30:08.278Z,11296.00
2019-05-13T05:31:08.274Z,11640.00
2019-05-13T05:32:08.261Z,11852.00
2019-05-13T05:33:08.273Z,11928.00
2019-05-13T05:34:08.233Z,12004.00
2019-05-13T05:35:08.224Z,12048.00
2019-05-13T05:36:08.213Z,11988.00
2019-05-13T05:37:08.205Z,11856.00
2019-05-13T05:38:08.192Z,11632.00
2019-05-13T05:39:08.193Z,11348.00
2019-05-13T05:40:08.170Z,11100.00
2019-05-13T05:41:08.175Z,10836.00
2019-05-13T05:42:08.146Z,10724.00
2019-05-13T05:43:08.136Z,10588.00
2019-05-13T05:44:08.126Z,10616.00
2019-05-13T05:45:08.116Z,10884.00
2019-05-13T05:46:08.131Z,10872.00
2019-05-13T05:47:08.112Z,11152.00
2019-05-13T05:48:08.092Z,10536.00
2019-05-13T05:49:08.070Z,10588.00
2019-05-13T05:50:08.066Z,10568.00
2019-05-13T05:51:08.050Z,10452.00
2019-05-13T05:52:08.063Z,10264.00
2019-05-13T05:53:08.026Z,10124.00
2019-05-13T05:54:11.170Z,9960.00
2019-05-13T05:55:11.180Z,9764.00
2019-05-13T05:56:07.995Z,9588.00
2019-05-13T05:57:07.981Z,9448.00
2019-05-13T05:58:07.991Z,9288.00
2019-05-13T05:59:07.962Z,9176.00
2019-05-13T06:00:07.965Z,9104.00
2019-05-13T06:01:07.941Z,9048.00
2019-05-13T06:02:07.933Z,9060.00
2019-05-13T06:03:07.929Z,9068.00
2019-05-13T06:04:07.922Z,9080.00
2019-05-13T06:05:07.907Z,9252.00
2019-05-13T06:06:07.890Z,9580.00
2019-05-13T06:07:07.897Z,11836.00
2019-05-13T06:08:07.860Z,12748.00
2019-05-13T06:09:07.868Z,15044.00
2019-05-13T06:10:07.856Z,14976.00
2019-05-13T06:11:07.826Z,10348.00
2019-05-13T06:12:07.817Z,11020.00
2019-05-13T06:13:07.882Z,12212.00
2019-05-13T06:14:07.796Z,12004.00
2019-05-13T06:15:07.797Z,19104.00
2019-05-13T06:16:07.781Z,31008.00
2019-05-13T06:17:07.765Z,38272.00
2019-05-13T06:18:07.755Z,26336.00
2019-05-13T06:19:07.767Z,13952.00
2019-05-13T06:20:07.754Z,18432.00
2019-05-13T06:21:07.728Z,34752.00
2019-05-13T06:22:07.710Z,45984.00
2019-05-13T06:23:07.713Z,49216.00
2019-05-13T06:24:07.695Z,51008.00
2019-05-13T06:25:07.695Z,31328.00
2019-05-13T06:26:07.663Z,15580.00
2019-05-13T06:27:07.656Z,23872.00
2019-05-13T06:28:07.645Z,41344.00
2019-05-13T06:29:07.633Z,51712.00
2019-05-13T06:30:07.632Z,55264.00
2019-05-13T06:31:07.616Z,55168.00
2019-05-13T06:32:19.248Z,54944.00
2019-05-13T06:33:08.590Z,56672.00
2019-05-13T06:34:07.576Z,56640.00
2019-05-13T06:35:07.585Z,55712.00
2019-05-13T06:36:07.557Z,52704.00
2019-05-13T06:37:07.545Z,55040.00
2019-05-13T06:38:07.534Z,54080.00
2019-05-13T06:39:07.526Z,54752.00
2019-05-13T06:40:07.544Z,56960.00
2019-05-13T06:41:11.469Z,57792.00
2019-05-13T06:42:08.488Z,57088.00
2019-05-13T06:43:07.480Z,56384.00
2019-05-13T06:44:07.470Z,58432.00
2019-05-13T06:45:07.463Z,59392.00
2019-05-13T06:46:07.464Z,57792.00
2019-05-13T06:47:07.439Z,56032.00
2019-05-13T06:48:07.437Z,56608.00
2019-05-13T06:49:07.413Z,60000.00
2019-05-13T06:50:07.404Z,61216.00
2019-05-13T06:51:07.403Z,58336.00
2019-05-13T06:52:13.962Z,56000.00
2019-05-13T06:53:08.499Z,56192.00
2019-05-13T06:54:07.359Z,57376.00
2019-05-13T06:55:07.349Z,58432.00
2019-05-13T06:56:07.335Z,61856.00
2019-05-13T06:57:07.327Z,62816.00
2019-05-13T06:58:07.326Z,63680.00
2019-05-13T06:59:07.303Z,61504.00
2019-05-13T07:00:07.292Z,58432.00
2019-05-13T07:01:07.284Z,58048.00
2019-05-13T07:02:07.285Z,61664.00
2019-05-13T07:03:07.266Z,62112.00
2019-05-13T07:04:07.249Z,65408.00
2019-05-13T07:05:07.243Z,57984.00
2019-05-13T07:06:07.226Z,58944.00
2019-05-13T07:07:13.126Z,57632.00
2019-05-13T07:08:08.204Z,57056.00
2019-05-13T07:09:07.195Z,55840.00
2019-05-13T07:10:07.182Z,57568.00
2019-05-13T07:11:17.700Z,65504.00
2019-05-13T07:12:08.169Z,72000.00
2019-05-13T07:13:07.147Z,76576.00
2019-05-13T07:14:07.145Z,74816.00
2019-05-13T07:15:07.127Z,74816.00
2019-05-13T07:16:07.115Z,63936.00
2019-05-13T07:17:07.119Z,70208.00
2019-05-13T07:18:07.119Z,72032.00
2019-05-13T07:19:07.083Z,77760.00
2019-05-13T07:20:07.076Z,71904.00
2019-05-13T07:21:07.069Z,68992.00
2019-05-13T07:22:07.051Z,70816.00
2019-05-13T07:23:07.079Z,59616.00
2019-05-13T07:24:07.032Z,68160.00
2019-05-13T07:25:07.022Z,49088.00
2019-05-13T07:26:07.011Z,61248.00
2019-05-13T07:27:07.000Z,65792.00
2019-05-13T07:28:06.990Z,54976.00
2019-05-13T07:29:07.605Z,51040.00
2019-05-13T07:30:06.986Z,47776.00
2019-05-13T07:31:06.957Z,50240.00
2019-05-13T07:32:06.949Z,57440.00
2019-05-13T07:33:06.935Z,66816.00
2019-05-13T07:34:06.936Z,80288.00
2019-05-13T07:35:06.925Z,59872.00
2019-05-13T07:36:06.940Z,87520.00
2019-05-13T07:37:06.889Z,89728.00
2019-05-13T07:38:06.885Z,92384.00
2019-05-13T07:39:06.879Z,93280.00
2019-05-13T07:40:06.885Z,88256.00
2019-05-13T07:41:06.853Z,90784.00
2019-05-13T07:42:06.841Z,90944.00
2019-05-13T07:43:06.828Z,91936.00
2019-05-13T07:44:06.814Z,93376.00
2019-05-13T07:45:06.821Z,91776.00
2019-05-13T07:46:06.795Z,91904.00
2019-05-13T07:47:06.785Z,92928.00
2019-05-13T07:48:19.415Z,91104.00
2019-05-13T07:49:07.762Z,88096.00
2019-05-13T07:50:06.765Z,86080.00
2019-05-13T07:51:06.746Z,93408.00
2019-05-13T07:52:06.733Z,93824.00
2019-05-13T07:53:06.723Z,93472.00
2019-05-13T07:54:06.709Z,92992.00
2019-05-13T07:55:06.731Z,95264.00
2019-05-13T07:56:06.687Z,95584.00
2019-05-13T07:57:06.678Z,95168.00
2019-05-13T07:58:06.669Z,93248.00
2019-05-13T07:59:06.662Z,94080.00
2019-05-13T08:00:06.656Z,94912.00
2019-05-13T08:01:06.654Z,94272.00
2019-05-13T08:02:06.627Z,73504.00
2019-05-13T08:03:06.614Z,96576.00
2019-05-13T08:04:19.263Z,85856.00
2019-05-13T08:05:07.595Z,86048.00
2019-05-13T08:06:06.603Z,90688.00
2019-05-13T08:07:06.575Z,93504.00
2019-05-13T08:08:06.566Z,98944.00
2019-05-13T08:09:06.553Z,100928.00
2019-05-13T08:10:06.544Z,103072.00
2019-05-13T08:11:06.548Z,100672.00
2019-05-13T08:12:11.027Z,90656.00
2019-05-13T08:13:07.509Z,87776.00
2019-05-13T08:14:06.502Z,94752.00
2019-05-13T08:15:06.515Z,90336.00
2019-05-13T08:16:06.509Z,89984.00
2019-05-13T08:17:06.470Z,73536.00
2019-05-13T08:18:06.459Z,92864.00
2019-05-13T08:19:06.450Z,92256.00
2019-05-13T08:20:06.443Z,97312.00
2019-05-13T08:21:06.430Z,97536.00
2019-05-13T08:22:06.431Z,103808.00
2019-05-13T08:23:06.409Z,108192.00
2019-05-13T08:24:06.399Z,103680.00
2019-05-13T08:25:06.413Z,103968.00
2019-05-13T08:26:06.390Z,101696.00
2019-05-13T08:27:06.381Z,102688.00
2019-05-13T08:28:06.362Z,106144.00
2019-05-13T08:29:06.351Z,108288.00
2019-05-13T08:30:06.334Z,106720.00
2019-05-13T08:31:06.331Z,71552.00
2019-05-13T08:32:06.331Z,79744.00
2019-05-13T08:33:06.306Z,60128.00
2019-05-13T08:34:06.300Z,97824.00
2019-05-13T08:35:08.924Z,97472.00
2019-05-13T08:36:06.278Z,88704.00
2019-05-13T08:37:06.278Z,83840.00
2019-05-13T08:38:06.255Z,105280.00
2019-05-13T08:39:06.270Z,100384.00
2019-05-13T08:40:06.240Z,102400.00
2019-05-13T08:41:09.821Z,103776.00
2019-05-13T08:42:14.967Z,104384.00
2019-05-13T08:43:07.214Z,101376.00
2019-05-13T08:44:06.191Z,101536.00
2019-05-13T08:45:06.202Z,105312.00
2019-05-13T08:46:06.187Z,93600.00
2019-05-13T08:47:06.170Z,83232.00
2019-05-13T08:48:06.153Z,107808.00
2019-05-13T08:49:06.142Z,113280.00
2019-05-13T08:50:06.130Z,110528.00
2019-05-13T08:51:06.143Z,107776.00
2019-05-13T08:52:06.113Z,113184.00
2019-05-13T08:53:06.100Z,118848.00
2019-05-13T08:54:06.094Z,94016.00
2019-05-13T08:55:06.082Z,94816.00
2019-05-13T08:56:06.071Z,110304.00
2019-05-13T08:57:06.080Z,119680.00
2019-05-13T08:58:06.064Z,121888.00
2019-05-13T08:59:06.040Z,114464.00
2019-05-13T09:00:06.067Z,96800.00
2019-05-13T09:01:06.023Z,102848.00
2019-05-13T09:02:06.013Z,116864.00
2019-05-13T09:03:06.436Z,118688.00
2019-05-13T09:04:05.991Z,108896.00
2019-05-13T09:05:05.995Z,100576.00
2019-05-13T09:06:05.981Z,106624.00
2019-05-13T09:07:05.962Z,116256.00
2019-05-13T09:08:05.958Z,111008.00
2019-05-13T09:09:05.950Z,95840.00
2019-05-13T09:10:05.935Z,106144.00
2019-05-13T09:11:05.923Z,107360.00
2019-05-13T09:12:05.919Z,97728.00
2019-05-13T09:13:05.913Z,99424.00
2019-05-13T09:14:05.892Z,97216.00
2019-05-13T09:15:05.882Z,104000.00
2019-05-13T09:16:05.892Z,112576.00
2019-05-13T09:17:05.861Z,108512.00
2019-05-13T09:18:05.852Z,120544.00
2019-05-13T09:19:05.842Z,123584.00
2019-05-13T09:20:05.845Z,115840.00
2019-05-13T09:21:05.823Z,111296.00
2019-05-13T09:22:05.833Z,111776.00
2019-05-13T09:23:05.800Z,117952.00
2019-05-13T09:24:20.623Z,118656.00
2019-05-13T09:25:06.795Z,122112.00
2019-05-13T09:26:05.771Z,124288.00
2019-05-13T09:27:05.761Z,121664.00
2019-05-13T09:28:05.752Z,114368.00
2019-05-13T09:29:05.745Z,116480.00
2019-05-13T09:30:05.742Z,120576.00
2019-05-13T09:31:05.730Z,116768.00
2019-05-13T09:32:05.711Z,123168.00
2019-05-13T09:33:05.709Z,124032.00
2019-05-13T09:34:05.691Z,121920.00
2019-05-13T09:35:05.725Z,121728.00
2019-05-13T09:36:05.678Z,118368.00
2019-05-13T09:37:05.668Z,118528.00
2019-05-13T09:38:05.657Z,118560.00
2019-05-13T09:39:05.645Z,121536.00
2019-05-13T09:40:05.639Z,121184.00
2019-05-13T09:41:05.665Z,123008.00
2019-05-13T09:42:05.615Z,118944.00
2019-05-13T09:43:05.607Z,116800.00
2019-05-13T09:44:05.602Z,116256.00
2019-05-13T09:45:05.586Z,123136.00
2019-05-13T09:46:05.580Z,120768.00
2019-05-13T09:47:05.616Z,119424.00
2019-05-13T09:48:05.561Z,119968.00
2019-05-13T09:49:18.384Z,120992.00
2019-05-13T09:50:06.540Z,120864.00
2019-05-13T09:51:05.530Z,115296.00
2019-05-13T09:52:05.524Z,119328.00
2019-05-13T09:53:05.520Z,120640.00
2019-05-13T09:54:05.499Z,122432.00
2019-05-13T09:55:21.125Z,116288.00
2019-05-13T09:56:06.481Z,115840.00
2019-05-13T09:57:05.483Z,118816.00
2019-05-13T09:58:05.461Z,84704.00
2019-05-13T09:59:05.458Z,91360.00
2019-05-13T10:00:05.489Z,115904.00
2019-05-13T10:01:05.432Z,114272.00
2019-05-13T10:02:05.425Z,121824.00
2019-05-13T10:03:05.416Z,114464.00
2019-05-13T10:04:05.403Z,117952.00
2019-05-13T10:05:05.395Z,111040.00
2019-05-13T10:06:05.508Z,108992.00
2019-05-13T10:07:05.390Z,114496.00
2019-05-13T10:08:05.367Z,108704.00
2019-05-13T10:09:05.367Z,103936.00
2019-05-13T10:10:05.361Z,102336.00
2019-05-13T10:11:05.339Z,103712.00
2019-05-13T10:12:05.349Z,99104.00
2019-05-13T10:13:11.980Z,93376.00
2019-05-13T10:14:06.313Z,93728.00
2019-05-13T10:15:05.317Z,100128.00
2019-05-13T10:16:05.291Z,109024.00
2019-05-13T10:17:06.651Z,112480.00
2019-05-13T10:18:05.278Z,115072.00
2019-05-13T10:19:05.265Z,113760.00
2019-05-13T10:20:05.265Z,122304.00
2019-05-13T10:21:05.244Z,124672.00
2019-05-13T10:22:05.244Z,123680.00
2019-05-13T10:23:05.227Z,127968.00
2019-05-13T10:24:05.226Z,122304.00
2019-05-13T10:25:05.219Z,124352.00
2019-05-13T10:26:05.226Z,107200.00
2019-05-13T10:27:05.191Z,114336.00
2019-05-13T10:28:05.190Z,121024.00
2019-05-13T10:29:05.184Z,118112.00
2019-05-13T10:30:05.174Z,102912.00
2019-05-13T10:31:05.165Z,109632.00
2019-05-13T10:32:05.160Z,111360.00
2019-05-13T10:33:05.142Z,114816.00
2019-05-13T10:34:05.140Z,113472.00
2019-05-13T10:35:05.126Z,94816.00
2019-05-13T10:36:05.137Z,121856.00
2019-05-13T10:37:05.101Z,109856.00
2019-05-13T10:38:05.108Z,119136.00
2019-05-13T10:39:05.081Z,114784.00
2019-05-13T10:40:05.088Z,112896.00
2019-05-13T10:41:05.066Z,126688.00
2019-05-13T10:42:05.064Z,114304.00
2019-05-13T10:43:05.056Z,124320.00
2019-05-13T10:44:05.038Z,115680.00
2019-05-13T10:45:05.046Z,111616.00
2019-05-13T10:46:05.023Z,129024.00
2019-05-13T10:47:05.010Z,112448.00
2019-05-13T10:48:10.248Z,115264.00
2019-05-13T10:49:05.992Z,120512.00
2019-05-13T10:50:05.004Z,108320.00
2019-05-13T10:51:04.985Z,116320.00
2019-05-13T10:52:04.977Z,108192.00
2019-05-13T10:53:04.953Z,106688.00
2019-05-13T10:54:04.947Z,119584.00
2019-05-13T10:55:04.955Z,106656.00
2019-05-13T10:56:04.943Z,121376.00
2019-05-13T10:57:04.916Z,124992.00
2019-05-13T10:58:04.911Z,113696.00
2019-05-13T10:59:04.905Z,113856.00
2019-05-13T11:00:04.907Z,119488.00
2019-05-13T11:01:04.888Z,122816.00
2019-05-13T11:02:04.887Z,116448.00
2019-05-13T11:03:04.872Z,126336.00
2019-05-13T11:04:04.859Z,127488.00
2019-05-13T11:05:04.863Z,124640.00
2019-05-13T11:06:04.841Z,132672.00
2019-05-13T11:07:04.832Z,125088.00
2019-05-13T11:08:04.834Z,120096.00
2019-05-13T11:09:04.808Z,123904.00
2019-05-13T11:10:04.802Z,124064.00
2019-05-13T11:11:04.789Z,123520.00
2019-05-13T11:12:04.784Z,117728.00
2019-05-13T11:13:06.171Z,119520.00
2019-05-13T11:14:11.370Z,124608.00
2019-05-13T11:15:05.766Z,112320.00
2019-05-13T11:16:04.745Z,128448.00
2019-05-13T11:17:04.742Z,120512.00
2019-05-13T11:18:04.726Z,121312.00
2019-05-13T11:19:04.726Z,127648.00
2019-05-13T11:20:04.741Z,115424.00
2019-05-13T11:21:04.708Z,114624.00
2019-05-13T11:22:04.692Z,120864.00
2019-05-13T11:23:04.682Z,121312.00
2019-05-13T11:24:04.674Z,120736.00
2019-05-13T11:25:04.669Z,127232.00
2019-05-13T11:26:04.672Z,124640.00
2019-05-13T11:27:04.651Z,124928.00
2019-05-13T11:28:04.646Z,129504.00
2019-05-13T11:29:04.622Z,130336.00
2019-05-13T11:30:06.183Z,127648.00
2019-05-13T11:31:04.607Z,122368.00
2019-05-13T11:32:04.608Z,121696.00
2019-05-13T11:33:09.941Z,126144.00
2019-05-13T11:34:05.587Z,118784.00
2019-05-13T11:35:04.578Z,117440.00
2019-05-13T11:36:04.569Z,120544.00
2019-05-13T11:37:04.556Z,128192.00
2019-05-13T11:38:04.546Z,119744.00
2019-05-13T11:39:04.545Z,120768.00
2019-05-13T11:40:04.522Z,123168.00
2019-05-13T11:41:04.516Z,134112.00
2019-05-13T11:42:04.502Z,129248.00
2019-05-13T11:43:04.499Z,124672.00
2019-05-13T11:44:12.536Z,129216.00
2019-05-13T11:45:05.476Z,125856.00
2019-05-13T11:46:04.469Z,128576.00
2019-05-13T11:47:04.458Z,118144.00
2019-05-13T11:48:04.446Z,133408.00
2019-05-13T11:49:04.451Z,124576.00
2019-05-13T11:50:04.438Z,119712.00
2019-05-13T11:51:04.540Z,120864.00
2019-05-13T11:52:04.412Z,113440.00
2019-05-13T11:53:30.150Z,115616.00
2019-05-13T11:54:05.385Z,114464.00
2019-05-13T11:55:04.432Z,114240.00
2019-05-13T11:56:04.388Z,111808.00
2019-05-13T11:57:06.333Z,112992.00
2019-05-13T11:58:05.378Z,115584.00
2019-05-13T11:59:04.649Z,120704.00
2019-05-13T12:00:04.367Z,122304.00
2019-05-13T12:01:04.337Z,125536.00
2019-05-13T12:02:04.939Z,128832.00
2019-05-13T12:03:04.349Z,128000.00
2019-05-13T12:04:04.294Z,123808.00
2019-05-13T12:05:04.405Z,123200.00
2019-05-13T12:06:04.289Z,118208.00